Map

Track Data

SID SEASON NUMBER BASIN SUBBASIN NAME ISO_TIME NATURE LAT LON WMO_WIND WMO_PRES WMO_AGENCY TRACK_TYPE DIST2LAND LANDFALL IFLAG USA_AGENCY USA_ATCF_ID USA_LAT USA_LON USA_RECORD USA_STATUS USA_WIND USA_PRES USA_SSHS USA_R34_NE USA_R34_SE USA_R34_SW USA_R34_NW USA_R50_NE USA_R50_SE USA_R50_SW USA_R50_NW USA_R64_NE USA_R64_SE USA_R64_SW USA_R64_NW USA_POCI USA_ROCI USA_RMW USA_EYE TOKYO_LAT TOKYO_LON TOKYO_GRADE TOKYO_WIND TOKYO_PRES TOKYO_R50_DIR TOKYO_R50_LONG TOKYO_R50_SHORT TOKYO_R30_DIR TOKYO_R30_LONG TOKYO_R30_SHORT TOKYO_LAND CMA_LAT CMA_LON CMA_CAT CMA_WIND CMA_PRES HKO_LAT HKO_LON HKO_CAT HKO_WIND HKO_PRES NEWDELHI_LAT NEWDELHI_LON NEWDELHI_GRADE NEWDELHI_WIND NEWDELHI_PRES NEWDELHI_CI NEWDELHI_DP NEWDELHI_POCI REUNION_LAT REUNION_LON REUNION_TYPE REUNION_WIND REUNION_PRES REUNION_TNUM REUNION_CI REUNION_RMW REUNION_R34_NE REUNION_R34_SE REUNION_R34_SW REUNION_R34_NW REUNION_R50_NE REUNION_R50_SE REUNION_R50_SW REUNION_R50_NW REUNION_R64_NE REUNION_R64_SE REUNION_R64_SW REUNION_R64_NW BOM_LAT BOM_LON BOM_TYPE BOM_WIND BOM_PRES BOM_TNUM BOM_CI BOM_RMW BOM_R34_NE BOM_R34_SE BOM_R34_SW BOM_R34_NW BOM_R50_NE BOM_R50_SE BOM_R50_SW BOM_R50_NW BOM_R64_NE BOM_R64_SE BOM_R64_SW BOM_R64_NW BOM_ROCI BOM_POCI BOM_EYE BOM_POS_METHOD BOM_PRES_METHOD NADI_LAT NADI_LON NADI_CAT NADI_WIND NADI_PRES WELLINGTON_LAT WELLINGTON_LON WELLINGTON_WIND WELLINGTON_PRES DS824_LAT DS824_LON DS824_STAGE DS824_WIND DS824_PRES TD9636_LAT TD9636_LON TD9636_STAGE TD9636_WIND TD9636_PRES TD9635_LAT TD9635_LON TD9635_WIND TD9635_PRES TD9635_ROCI NEUMANN_LAT NEUMANN_LON NEUMANN_CLASS NEUMANN_WIND NEUMANN_PRES MLC_LAT MLC_LON MLC_CLASS MLC_WIND MLC_PRES USA_GUST BOM_GUST BOM_GUST_PER REUNION_GUST REUNION_GUST_PER USA_SEAHGT USA_SEARAD_NE USA_SEARAD_SE USA_SEARAD_SW USA_SEARAD_NW STORM_SPEED STORM_DIR
1908287N18150 1908 46 WP MM NOT_NAMED 1908-10-12 16:00:00 NR 18.1000 149.900 main 2120 2036 __________O___ -1 18.1000 149.900 7 34 285
1908287N18150 1908 46 WP MM NOT_NAMED 1908-10-12 18:00:00 NR 18.3999 148.740 main 2036 1932 __________P___ -1 18.3999 148.740 7 34 285
1908287N18150 1908 46 WP MM NOT_NAMED 1908-10-12 21:00:00 NR 18.8235 147.060 main 1932 1840 __________P___ -1 18.8235 147.060 7 31 285
1908287N18150 1908 46 WP MM NOT_NAMED 1908-10-13 00:00:00 NR 19.1993 145.552 main 1840 1765 __________P___ -1 19.1993 145.552 7 27 285
1908287N18150 1908 46 WP MM NOT_NAMED 1908-10-13 03:00:00 NR 19.5120 144.326 main 1765 1746 __________P___ -1 19.5120 144.326 7 23 285
1908287N18150 1908 46 WP MM NOT_NAMED 1908-10-13 04:00:00 NR 19.6000 144.000 main 1741 1699 __________O___ -1 19.6000 144.000 7 17 287
1908287N18150 1908 46 WP MM NOT_NAMED 1908-10-13 06:00:00 NR 19.7512 143.483 main 1699 1667 __________P___ -1 19.7512 143.483 7 12 289
1908287N18150 1908 46 WP MM NOT_NAMED 1908-10-13 09:00:00 NR 19.9330 142.980 main 1667 1634 __________P___ -1 19.9330 142.980 7 8 294
1908287N18150 1908 46 WP MM NOT_NAMED 1908-10-13 12:00:00 NR 20.0875 142.689 main 1634 1615 __________P___ -1 20.0875 142.689 7 6 303
1908287N18150 1908 46 WP MM NOT_NAMED 1908-10-13 15:00:00 NR 20.2431 142.476 main 1615 1601 __________P___ -1 20.2431 142.476 7 5 308
1908287N18150 1908 46 WP MM NOT_NAMED 1908-10-13 16:00:00 NR 20.3000 142.400 main 1601 1579 __________O___ -1 20.3000 142.400 7 7 302
1908287N18150 1908 46 WP MM NOT_NAMED 1908-10-13 18:00:00 NR 20.4383 142.144 main 1579 1536 __________P___ -1 20.4383 142.144 7 8 301
1908287N18150 1908 46 WP MM NOT_NAMED 1908-10-13 21:00:00 NR 20.6587 141.767 main 1536 1500 __________P___ -1 20.6587 141.767 7 8 303
1908287N18150 1908 46 WP MM NOT_NAMED 1908-10-14 00:00:00 NR 20.8888 141.394 main 1500 1465 __________P___ -1 20.8888 141.394 7 8 304
1908287N18150 1908 46 WP MM NOT_NAMED 1908-10-14 03:00:00 NR 21.1224 141.024 main 1465 1451 __________P___ -1 21.1224 141.024 7 8 304
1908287N18150 1908 46 WP MM NOT_NAMED 1908-10-14 04:00:00 NR 21.2000 140.900 main 1451 1431 __________O___ -1 21.2000 140.900 7 8 302
1908287N18150 1908 46 WP MM NOT_NAMED 1908-10-14 06:00:00 NR 21.3473 140.642 main 1431 1389 __________P___ -1 21.3473 140.642 7 8 301
1908287N18150 1908 46 WP MM NOT_NAMED 1908-10-14 09:00:00 NR 21.5683 140.255 main 1389 1356 __________P___ -1 21.5683 140.255 7 8 302
1908287N18150 1908 46 WP MM NOT_NAMED 1908-10-14 12:00:00 NR 21.7921 139.876 main 1356 1321 __________P___ -1 21.7921 139.876 7 8 303
1908287N18150 1908 46 WP MM NOT_NAMED 1908-10-14 15:00:00 NR 22.0216 139.515 main 1321 1306 __________P___ -1 22.0216 139.515 7 8 305
1908287N18150 1908 46 WP MM NOT_NAMED 1908-10-14 16:00:00 NR 22.1000 139.400 main 1306 1275 __________O___ -1 22.1000 139.400 7 8 307
1908287N18150 1908 46 WP MM NOT_NAMED 1908-10-14 18:00:00 NR 22.2607 139.177 main 1275 1239 __________P___ -1 22.2607 139.177 7 8 309
1908287N18150 1908 46 WP MM NOT_NAMED 1908-10-14 21:00:00 NR 22.5084 138.863 main 1239 1194 __________P___ -1 22.5084 138.863 7 8 312
1908287N18150 1908 46 WP MM NOT_NAMED 1908-10-15 00:00:00 NR 22.7610 138.568 main 1194 1158 __________P___ -1 22.7610 138.568 7 7 314
1908287N18150 1908 46 WP MM NOT_NAMED 1908-10-15 03:00:00 NR 23.0154 138.290 main 1158 1143 __________P___ -1 23.0154 138.290 7 7 315
1908287N18150 1908 46 WP MM NOT_NAMED 1908-10-15 04:00:00 NR 23.1000 138.200 main 1143 1113 __________O___ -1 23.1000 138.200 7 7 315
1908287N18150 1908 46 WP MM NOT_NAMED 1908-10-15 06:00:00 NR 23.2639 138.014 main 1113 1078 __________P___ -1 23.2639 138.014 7 7 315
1908287N18150 1908 46 WP MM NOT_NAMED 1908-10-15 09:00:00 NR 23.5099 137.747 main 1078 1039 __________P___ -1 23.5099 137.747 7 7 316
1908287N18150 1908 46 WP MM NOT_NAMED 1908-10-15 12:00:00 NR 23.7587 137.498 main 1039 1009 __________P___ -1 23.7587 137.498 7 7 319
1908287N18150 1908 46 WP MM NOT_NAMED 1908-10-15 15:00:00 NR 24.0133 137.271 main 1009 994 __________P___ -1 24.0133 137.271 7 7 322
1908287N18150 1908 46 WP MM NOT_NAMED 1908-10-15 16:00:00 NR 24.1000 137.200 main 994 970 __________O___ -1 24.1000 137.200 7 6 323
1908287N18150 1908 46 WP MM NOT_NAMED 1908-10-15 18:00:00 NR 24.2696 137.061 main 970 940 __________P___ -1 24.2696 137.061 7 6 325
1908287N18150 1908 46 WP MM NOT_NAMED 1908-10-15 21:00:00 NR 24.5303 136.871 main 940 901 __________P___ -1 24.5303 136.871 7 6 329
1908287N18150 1908 46 WP MM NOT_NAMED 1908-10-16 00:00:00 NR 24.8041 136.701 main 901 862 __________P___ -1 24.8041 136.701 7 6 333
1908287N18150 1908 46 WP MM NOT_NAMED 1908-10-16 03:00:00 NR 25.0970 136.548 main 862 852 __________P___ -1 25.0970 136.548 7 7 335
1908287N18150 1908 46 WP MM NOT_NAMED 1908-10-16 04:00:00 NR 25.2000 136.500 main 852 828 __________O___ -1 25.2000 136.500 7 7 335
1908287N18150 1908 46 WP MM NOT_NAMED 1908-10-16 06:00:00 NR 25.4110 136.387 main 828 789 __________P___ -1 25.4110 136.387 7 7 336
1908287N18150 1908 46 WP MM NOT_NAMED 1908-10-16 09:00:00 NR 25.7462 136.230 main 789 747 __________P___ -1 25.7462 136.230 7 7 340
1908287N18150 1908 46 WP MM NOT_NAMED 1908-10-16 12:00:00 NR 26.1013 136.101 main 747 706 __________P___ -1 26.1013 136.101 7 8 345
1908287N18150 1908 46 WP MM NOT_NAMED 1908-10-16 15:00:00 NR 26.4729 136.016 main 706 697 __________P___ -1 26.4729 136.016 7 8 350
1908287N18150 1908 46 WP MM NOT_NAMED 1908-10-16 16:00:00 NR 26.6000 136.000 main 697 671 __________O___ -1 26.6000 136.000 7 8 357
1908287N18150 1908 46 WP MM NOT_NAMED 1908-10-16 18:00:00 NR 26.8582 135.989 main 671 638 __________P___ -1 26.8582 135.989 7 8 0
1908287N18150 1908 46 WP MM NOT_NAMED 1908-10-16 21:00:00 NR 27.2539 136.016 main 638 613 __________P___ -1 27.2539 136.016 7 8 5
1908287N18150 1908 46 WP MM NOT_NAMED 1908-10-17 00:00:00 NR 27.6568 136.081 main 613 591 __________P___ -1 27.6568 136.081 7 8 10
1908287N18150 1908 46 WP MM NOT_NAMED 1908-10-17 03:00:00 NR 28.0639 136.169 main 591 581 __________P___ -1 28.0639 136.169 7 8 11
1908287N18150 1908 46 WP MM NOT_NAMED 1908-10-17 04:00:00 NR 28.2000 136.200 main 581 __________O___ -1 28.2000 136.200 7 8 7

Digital Typhoon Data and Search

About IBTrACS Database

This database is a web-friendly format of International Best Track Archive for Climate Stewardship (IBTrACS), a global best track data archive curated by NOAA dating back to 1842.

Updated: 2021-10-21